createdAt,value
2018-11-06T00:00:18.291Z,8.20
2018-11-06T00:01:23.715Z,8.30
2018-11-06T00:02:29.220Z,8.30
2018-11-06T00:03:39.721Z,8.30
2018-11-06T00:04:50.334Z,8.30
2018-11-06T00:05:56.279Z,8.30
2018-11-06T00:07:01.822Z,8.30
2018-11-06T00:08:07.346Z,8.30
2018-11-06T00:09:12.964Z,8.30
2018-11-06T00:10:18.420Z,8.30
2018-11-06T00:11:23.882Z,8.30
2018-11-06T00:12:29.591Z,8.30
2018-11-06T00:13:35.062Z,8.20
2018-11-06T00:14:40.486Z,8.20
2018-11-06T00:15:45.931Z,8.30
2018-11-06T00:16:51.434Z,8.30
2018-11-06T00:17:56.965Z,8.30
2018-11-06T00:19:02.461Z,8.30
2018-11-06T00:20:10.930Z,8.40
2018-11-06T00:21:16.423Z,8.30
2018-11-06T00:22:21.889Z,8.30
2018-11-06T00:23:27.452Z,8.40
2018-11-06T00:24:32.909Z,8.40
2018-11-06T00:25:38.643Z,8.40
2018-11-06T00:26:44.033Z,8.40
2018-11-06T00:27:49.500Z,8.40
2018-11-06T00:28:55.017Z,8.30
2018-11-06T00:30:00.498Z,8.30
2018-11-06T00:31:07.011Z,8.30
2018-11-06T00:32:12.441Z,8.30
2018-11-06T00:33:17.874Z,8.20
2018-11-06T00:34:23.423Z,8.30
2018-11-06T00:35:28.910Z,8.30
2018-11-06T00:36:34.462Z,8.20
2018-11-06T00:37:40.748Z,8.20
2018-11-06T00:38:46.213Z,8.20
2018-11-06T00:39:51.630Z,8.20
2018-11-06T00:40:57.109Z,8.20
2018-11-06T00:42:02.563Z,8.20
2018-11-06T00:43:07.990Z,8.20
2018-11-06T00:44:13.454Z,8.20
2018-11-06T00:45:18.908Z,8.30
2018-11-06T00:46:24.360Z,8.30
2018-11-06T00:47:29.842Z,8.30
2018-11-06T00:48:35.307Z,8.30
2018-11-06T00:49:40.767Z,8.30
2018-11-06T00:50:46.259Z,8.30
2018-11-06T00:51:51.738Z,8.30
2018-11-06T00:52:57.200Z,8.30
2018-11-06T00:54:02.717Z,8.30
2018-11-06T00:55:09.059Z,8.30
2018-11-06T00:56:14.609Z,8.30
2018-11-06T00:57:20.028Z,8.30
2018-11-06T00:58:25.546Z,8.30
2018-11-06T00:59:30.985Z,8.30
2018-11-06T01:00:36.440Z,8.30
2018-11-06T01:01:41.897Z,8.30
2018-11-06T01:02:47.898Z,8.30
2018-11-06T01:03:58.705Z,8.30
2018-11-06T01:05:04.205Z,8.30
2018-11-06T01:06:09.669Z,8.30
2018-11-06T01:07:15.162Z,8.30
2018-11-06T01:08:20.645Z,8.30
2018-11-06T01:09:26.170Z,8.30
2018-11-06T01:10:31.641Z,8.30
2018-11-06T01:11:37.312Z,8.30
2018-11-06T01:12:42.812Z,8.30
2018-11-06T01:13:48.313Z,8.40
2018-11-06T01:14:53.829Z,8.30
2018-11-06T01:15:59.360Z,8.40
2018-11-06T01:17:04.824Z,8.30
2018-11-06T01:18:10.325Z,8.30
2018-11-06T01:19:15.898Z,8.30
2018-11-06T01:20:21.472Z,8.30
2018-11-06T01:21:26.924Z,8.30
2018-11-06T01:22:32.415Z,8.30
2018-11-06T01:23:38.305Z,8.30
2018-11-06T01:24:44.181Z,8.30
2018-11-06T01:25:49.633Z,8.30
2018-11-06T01:26:55.107Z,8.30
2018-11-06T01:28:00.727Z,8.30
2018-11-06T01:29:07.341Z,8.30
2018-11-06T01:30:18.425Z,8.30
2018-11-06T01:31:23.893Z,8.30
2018-11-06T01:32:29.461Z,8.30
2018-11-06T01:33:34.969Z,8.30
2018-11-06T01:34:40.388Z,8.30
2018-11-06T01:35:45.814Z,8.40
2018-11-06T01:36:51.306Z,8.40
2018-11-06T01:37:56.883Z,8.40
2018-11-06T01:39:02.510Z,8.40
2018-11-06T01:40:10.909Z,8.30
2018-11-06T01:41:16.350Z,8.30
2018-11-06T01:42:21.854Z,8.30
2018-11-06T01:43:27.356Z,8.30
2018-11-06T01:44:32.994Z,8.30
2018-11-06T01:45:38.482Z,8.30
2018-11-06T01:46:43.906Z,8.20
2018-11-06T01:47:49.364Z,8.20
2018-11-06T01:48:54.785Z,8.20
2018-11-06T01:50:00.311Z,8.20
2018-11-06T01:51:06.191Z,8.20
2018-11-06T01:52:11.628Z,8.20
2018-11-06T01:53:17.028Z,8.20
2018-11-06T01:54:22.482Z,8.10
2018-11-06T01:55:28.007Z,8.10
2018-11-06T01:56:33.437Z,8.10
2018-11-06T01:57:38.883Z,8.00
2018-11-06T01:58:44.325Z,8.00
2018-11-06T01:59:49.801Z,7.90
2018-11-06T02:00:55.260Z,8.00
2018-11-06T02:02:00.660Z,8.00
2018-11-06T02:03:06.238Z,8.00
2018-11-06T02:04:11.822Z,7.90
2018-11-06T02:05:18.370Z,7.90
2018-11-06T02:06:23.801Z,7.90
2018-11-06T02:07:29.366Z,7.90
2018-11-06T02:08:34.812Z,7.90
2018-11-06T02:09:40.244Z,7.80
2018-11-06T02:10:45.652Z,7.80
2018-11-06T02:11:51.045Z,7.80
2018-11-06T02:12:56.610Z,7.70
2018-11-06T02:14:02.132Z,7.70
2018-11-06T02:15:08.268Z,7.70
2018-11-06T02:16:13.828Z,7.60
2018-11-06T02:17:19.375Z,7.60
2018-11-06T02:18:24.881Z,7.50
2018-11-06T02:19:30.492Z,7.50
2018-11-06T02:20:35.929Z,7.50
2018-11-06T02:21:41.424Z,7.50
2018-11-06T02:22:47.386Z,7.40
2018-11-06T02:23:52.833Z,7.40
2018-11-06T02:24:58.258Z,7.40
2018-11-06T02:26:03.704Z,7.40
2018-11-06T02:27:09.126Z,7.30
2018-11-06T02:28:14.737Z,7.40
2018-11-06T02:29:20.263Z,7.30
2018-11-06T02:30:25.687Z,7.30
2018-11-06T02:31:31.176Z,7.30
2018-11-06T02:32:36.733Z,7.30
2018-11-06T02:33:42.187Z,7.30
2018-11-06T02:34:47.637Z,7.30
2018-11-06T02:35:53.104Z,7.30
2018-11-06T02:36:58.645Z,7.30
2018-11-06T02:38:04.205Z,7.20
2018-11-06T02:39:10.505Z,7.20
2018-11-06T02:40:16.650Z,7.20
2018-11-06T02:41:22.228Z,7.10
2018-11-06T02:42:27.741Z,7.10
2018-11-06T02:43:33.209Z,7.10
2018-11-06T02:44:38.817Z,7.10
2018-11-06T02:45:44.352Z,7.10
2018-11-06T02:46:49.900Z,7.10
2018-11-06T02:47:55.517Z,7.10
2018-11-06T02:49:01.024Z,7.00
2018-11-06T02:50:07.093Z,7.00
2018-11-06T02:51:12.525Z,7.00
2018-11-06T02:52:18.017Z,7.00
2018-11-06T02:53:23.481Z,6.90
2018-11-06T02:54:28.920Z,6.90
2018-11-06T02:55:34.368Z,6.90
2018-11-06T02:56:39.868Z,6.90
2018-11-06T02:57:45.405Z,6.90
2018-11-06T02:58:50.975Z,6.90
2018-11-06T02:59:56.492Z,7.00
2018-11-06T03:01:01.962Z,7.00
2018-11-06T03:02:07.429Z,7.00
2018-11-06T03:03:13.006Z,7.00
2018-11-06T03:04:18.448Z,7.00
2018-11-06T03:05:23.936Z,7.00
2018-11-06T03:06:29.409Z,6.90
2018-11-06T03:07:34.962Z,6.90
2018-11-06T03:08:40.801Z,6.90
2018-11-06T03:09:46.286Z,6.90
2018-11-06T03:10:51.721Z,6.90
2018-11-06T03:11:57.226Z,6.80
2018-11-06T03:13:02.742Z,6.80
2018-11-06T03:14:08.280Z,6.90
2018-11-06T03:15:14.626Z,6.80
2018-11-06T03:16:20.054Z,6.90
2018-11-06T03:17:25.489Z,6.90
2018-11-06T03:18:30.985Z,6.80
2018-11-06T03:19:36.413Z,6.80
2018-11-06T03:20:41.817Z,6.80
2018-11-06T03:21:47.290Z,6.80
2018-11-06T03:22:52.799Z,6.80
2018-11-06T03:23:58.269Z,6.80
2018-11-06T03:25:03.831Z,6.80
2018-11-06T03:26:09.293Z,6.80
2018-11-06T03:27:14.724Z,6.80
2018-11-06T03:28:20.187Z,6.90
2018-11-06T03:29:25.734Z,6.90
2018-11-06T03:30:31.188Z,6.90
2018-11-06T03:31:36.680Z,6.90
2018-11-06T03:32:42.197Z,6.90
2018-11-06T03:33:47.611Z,6.90
2018-11-06T03:34:53.110Z,7.00
2018-11-06T03:35:58.597Z,6.90
2018-11-06T03:37:04.100Z,6.90
2018-11-06T03:38:09.533Z,6.90
2018-11-06T03:39:14.941Z,6.90
2018-11-06T03:40:20.426Z,6.90
2018-11-06T03:41:25.873Z,6.90
2018-11-06T03:42:31.332Z,6.80
2018-11-06T03:43:36.807Z,6.80
2018-11-06T03:44:42.257Z,6.80
2018-11-06T03:45:47.713Z,6.80
2018-11-06T03:46:53.220Z,6.80
2018-11-06T03:47:58.724Z,6.80
2018-11-06T03:49:04.212Z,6.80
2018-11-06T03:50:11.661Z,6.70
2018-11-06T03:51:17.127Z,6.70
2018-11-06T03:52:22.673Z,6.70
2018-11-06T03:53:28.145Z,6.70
2018-11-06T03:54:33.607Z,6.60
2018-11-06T03:55:39.035Z,6.60
2018-11-06T03:56:44.537Z,6.60
2018-11-06T03:57:49.937Z,6.50
2018-11-06T03:58:55.442Z,6.50
2018-11-06T04:00:00.945Z,6.50
2018-11-06T04:01:07.021Z,6.50
2018-11-06T04:02:12.513Z,6.50
2018-11-06T04:03:17.920Z,6.60
2018-11-06T04:04:23.468Z,6.60
2018-11-06T04:05:29.005Z,6.60
2018-11-06T04:06:34.487Z,6.60
2018-11-06T04:07:40.025Z,6.60
2018-11-06T04:08:45.468Z,6.70
2018-11-06T04:09:50.969Z,6.60
2018-11-06T04:10:56.445Z,6.70
2018-11-06T04:12:01.849Z,6.60
2018-11-06T04:13:07.300Z,6.70
2018-11-06T04:14:12.718Z,6.60
2018-11-06T04:15:18.136Z,6.60
2018-11-06T04:16:23.629Z,6.60
2018-11-06T04:17:29.040Z,6.60
2018-11-06T04:18:34.469Z,6.60
2018-11-06T04:19:39.874Z,6.70
2018-11-06T04:20:45.294Z,6.60
2018-11-06T04:21:50.721Z,6.60
2018-11-06T04:22:56.203Z,6.70
2018-11-06T04:24:01.648Z,6.70
2018-11-06T04:25:07.529Z,6.70
2018-11-06T04:26:12.976Z,6.70
2018-11-06T04:27:18.448Z,6.70
2018-11-06T04:28:23.978Z,6.70
2018-11-06T04:29:29.534Z,6.70
2018-11-06T04:30:35.520Z,6.70
2018-11-06T04:31:41.228Z,6.80
2018-11-06T04:32:46.713Z,6.70
2018-11-06T04:33:52.176Z,6.80
2018-11-06T04:34:57.626Z,6.70
2018-11-06T04:36:03.049Z,6.70
2018-11-06T04:37:08.572Z,6.70
2018-11-06T04:38:14.066Z,6.70
2018-11-06T04:39:19.532Z,6.70
2018-11-06T04:40:24.977Z,6.70
2018-11-06T04:41:30.513Z,6.70
2018-11-06T04:42:36.009Z,6.70
2018-11-06T04:43:41.570Z,6.70
2018-11-06T04:44:47.142Z,6.70
2018-11-06T04:45:52.652Z,6.70
2018-11-06T04:46:58.096Z,6.60
2018-11-06T04:48:03.589Z,6.60
2018-11-06T04:49:09.743Z,6.60
2018-11-06T04:50:15.249Z,6.70
2018-11-06T04:51:21.286Z,6.70
2018-11-06T04:52:26.725Z,6.70
2018-11-06T04:53:34.622Z,6.70
2018-11-06T04:54:40.114Z,6.70
2018-11-06T04:55:45.554Z,6.70
2018-11-06T04:56:51.174Z,6.70
2018-11-06T04:57:56.609Z,6.70
2018-11-06T04:59:02.144Z,6.80
2018-11-06T05:00:10.403Z,6.70
2018-11-06T05:01:15.858Z,6.70
2018-11-06T05:02:21.366Z,6.70
2018-11-06T05:03:26.967Z,6.70
2018-11-06T05:04:32.401Z,6.70
2018-11-06T05:05:37.844Z,6.80
2018-11-06T05:06:43.364Z,6.70
2018-11-06T05:07:48.865Z,6.80
2018-11-06T05:08:54.605Z,6.80
2018-11-06T05:10:00.045Z,6.70
2018-11-06T05:11:05.779Z,6.80
2018-11-06T05:12:11.282Z,6.90
2018-11-06T05:13:16.731Z,6.80
2018-11-06T05:14:22.241Z,6.80
2018-11-06T05:15:27.674Z,6.80
2018-11-06T05:16:33.110Z,6.80
2018-11-06T05:17:38.540Z,6.80
2018-11-06T05:18:44.230Z,6.80
2018-11-06T05:19:49.852Z,6.80
2018-11-06T05:20:55.342Z,6.80
2018-11-06T05:22:00.802Z,6.80
2018-11-06T05:23:06.244Z,6.70
2018-11-06T05:24:11.862Z,6.70
2018-11-06T05:25:17.363Z,6.70
2018-11-06T05:26:22.889Z,6.70
2018-11-06T05:27:28.409Z,6.80
2018-11-06T05:28:33.852Z,6.80
2018-11-06T05:29:39.366Z,6.80
2018-11-06T05:30:44.875Z,6.80
2018-11-06T05:31:50.560Z,6.80
2018-11-06T05:32:56.106Z,6.80
2018-11-06T05:34:01.452Z,6.80
2018-11-06T05:35:08.622Z,6.80
2018-11-06T05:36:14.070Z,6.80
2018-11-06T05:37:19.483Z,6.80
2018-11-06T05:38:24.968Z,6.70
2018-11-06T05:39:30.623Z,6.70
2018-11-06T05:40:55.420Z,6.70
2018-11-06T05:42:00.854Z,6.70
2018-11-06T05:43:06.428Z,6.70
2018-11-06T05:44:11.940Z,6.60
2018-11-06T05:45:17.369Z,6.60
2018-11-06T05:46:22.960Z,6.80
2018-11-06T05:47:28.439Z,6.80
2018-11-06T05:48:33.920Z,6.80
2018-11-06T05:49:39.336Z,6.90
2018-11-06T05:50:44.792Z,6.90
2018-11-06T05:51:50.270Z,6.90
2018-11-06T05:52:55.806Z,6.90
2018-11-06T05:54:02.946Z,6.90
2018-11-06T05:55:08.459Z,7.00
2018-11-06T05:56:13.856Z,7.00
2018-11-06T05:57:19.398Z,7.00
2018-11-06T05:58:24.900Z,7.00
2018-11-06T05:59:30.317Z,7.00
2018-11-06T06:00:35.746Z,7.10
2018-11-06T06:01:41.193Z,7.10
2018-11-06T06:02:46.708Z,7.10
2018-11-06T06:03:52.185Z,7.00
2018-11-06T06:04:57.685Z,7.10
2018-11-06T06:06:03.309Z,7.10
2018-11-06T06:07:08.799Z,7.10
2018-11-06T06:08:14.382Z,7.10
2018-11-06T06:09:19.844Z,7.00
2018-11-06T06:10:25.297Z,7.00
2018-11-06T06:11:30.853Z,7.00
2018-11-06T06:12:36.907Z,7.00
2018-11-06T06:13:42.442Z,6.90
2018-11-06T06:14:47.876Z,7.00
2018-11-06T06:15:53.372Z,7.00
2018-11-06T06:16:58.822Z,7.00
2018-11-06T06:18:04.260Z,7.10
2018-11-06T06:19:09.846Z,7.10
2018-11-06T06:20:15.368Z,7.20
2018-11-06T06:21:20.837Z,7.20
2018-11-06T06:22:26.330Z,7.10
2018-11-06T06:23:31.991Z,7.20
2018-11-06T06:24:37.527Z,7.20
2018-11-06T06:25:43.002Z,7.20
2018-11-06T06:26:48.529Z,7.20
2018-11-06T06:27:53.980Z,7.30
2018-11-06T06:28:59.503Z,7.30
2018-11-06T06:30:06.993Z,7.30
2018-11-06T06:31:12.553Z,7.30
2018-11-06T06:32:18.081Z,7.40
2018-11-06T06:33:23.589Z,7.40
2018-11-06T06:34:29.134Z,7.50
2018-11-06T06:35:34.639Z,7.50
2018-11-06T06:36:40.145Z,7.50
2018-11-06T06:37:45.654Z,7.50
2018-11-06T06:38:51.180Z,7.60
2018-11-06T06:39:56.620Z,7.50
2018-11-06T06:41:02.205Z,7.60
2018-11-06T06:42:08.119Z,7.60
2018-11-06T06:43:13.593Z,7.60
2018-11-06T06:44:19.092Z,7.50
2018-11-06T06:45:24.593Z,7.60
2018-11-06T06:46:30.144Z,7.60
2018-11-06T06:47:35.585Z,7.60
2018-11-06T06:48:41.021Z,7.60
2018-11-06T06:49:46.437Z,7.50
2018-11-06T06:50:51.933Z,7.50
2018-11-06T06:51:57.351Z,7.50
2018-11-06T06:53:02.829Z,7.50
2018-11-06T06:54:08.441Z,7.40
2018-11-06T06:55:14.793Z,7.40
2018-11-06T06:56:20.126Z,7.40
2018-11-06T06:57:25.577Z,7.40
2018-11-06T06:58:30.980Z,7.40
2018-11-06T06:59:36.397Z,7.40
2018-11-06T07:00:41.869Z,7.40
2018-11-06T07:01:47.298Z,7.40
2018-11-06T07:02:52.765Z,7.40
2018-11-06T07:03:58.208Z,7.40
2018-11-06T07:05:03.781Z,7.40
2018-11-06T07:06:09.268Z,7.40
2018-11-06T07:07:14.730Z,7.50
2018-11-06T07:08:20.229Z,7.50
2018-11-06T07:09:25.716Z,7.50
2018-11-06T07:10:31.315Z,7.50
2018-11-06T07:11:36.742Z,7.50
2018-11-06T07:12:43.786Z,7.50
2018-11-06T07:13:49.281Z,7.60
2018-11-06T07:14:54.774Z,7.60
2018-11-06T07:16:00.231Z,7.70
2018-11-06T07:17:06.145Z,7.70
2018-11-06T07:18:11.609Z,7.70
2018-11-06T07:19:17.097Z,7.70
2018-11-06T07:20:24.088Z,7.70
2018-11-06T07:21:29.621Z,7.80
2018-11-06T07:22:35.086Z,7.80
2018-11-06T07:23:40.675Z,7.80
2018-11-06T07:24:46.078Z,7.80
2018-11-06T07:25:51.608Z,7.80
2018-11-06T07:26:57.136Z,7.80
2018-11-06T07:28:02.644Z,7.80
2018-11-06T07:29:08.222Z,7.80
2018-11-06T07:30:19.268Z,7.90
2018-11-06T07:31:24.905Z,7.90
2018-11-06T07:32:34.032Z,7.90
2018-11-06T07:33:39.504Z,8.00
2018-11-06T07:34:45.153Z,8.00
2018-11-06T07:35:50.515Z,8.00
2018-11-06T07:36:56.181Z,8.00
2018-11-06T07:38:01.625Z,8.00
2018-11-06T07:39:10.559Z,8.00
2018-11-06T07:40:17.340Z,8.00
2018-11-06T07:41:22.776Z,8.10
2018-11-06T07:42:28.278Z,8.10
2018-11-06T07:43:33.747Z,8.10
2018-11-06T07:44:39.298Z,8.10
2018-11-06T07:45:44.762Z,8.20
2018-11-06T07:46:50.181Z,8.20
2018-11-06T07:47:55.650Z,8.30
2018-11-06T07:49:01.112Z,8.30
2018-11-06T07:50:08.046Z,8.30
2018-11-06T07:51:13.542Z,8.30
2018-11-06T07:52:19.008Z,8.30
2018-11-06T07:53:24.588Z,8.40
2018-11-06T07:54:30.036Z,8.40
2018-11-06T07:55:35.649Z,8.40
2018-11-06T07:56:41.009Z,8.50
2018-11-06T07:57:46.576Z,8.50
2018-11-06T07:58:52.051Z,8.50
2018-11-06T07:59:57.517Z,8.60
2018-11-06T08:01:02.957Z,8.60
2018-11-06T08:02:08.445Z,8.60
2018-11-06T08:03:13.929Z,8.70
2018-11-06T08:04:19.446Z,8.70
2018-11-06T08:05:24.937Z,8.70
2018-11-06T08:06:30.442Z,8.70
2018-11-06T08:07:35.897Z,8.70
2018-11-06T08:08:41.409Z,8.70
2018-11-06T08:09:46.964Z,8.70
2018-11-06T08:10:52.411Z,8.80
2018-11-06T08:11:57.883Z,8.80
2018-11-06T08:13:03.385Z,8.70
2018-11-06T08:14:09.049Z,8.70
2018-11-06T08:15:14.798Z,8.70
2018-11-06T08:16:20.233Z,8.70
2018-11-06T08:17:25.668Z,8.70
2018-11-06T08:18:31.185Z,8.70
2018-11-06T08:19:36.640Z,8.70
2018-11-06T08:20:42.070Z,8.80
2018-11-06T08:21:47.541Z,8.80
2018-11-06T08:22:52.964Z,8.80
2018-11-06T08:23:58.517Z,8.90
2018-11-06T08:25:04.105Z,8.90
2018-11-06T08:26:09.566Z,9.00
2018-11-06T08:27:15.038Z,9.00
2018-11-06T08:28:20.512Z,9.10
2018-11-06T08:29:26.016Z,9.20
2018-11-06T08:30:31.567Z,9.30
2018-11-06T08:31:37.117Z,9.30
2018-11-06T08:32:42.962Z,9.50
2018-11-06T08:33:48.094Z,9.60
2018-11-06T08:34:53.603Z,9.70
2018-11-06T08:35:59.108Z,9.80
2018-11-06T08:37:04.691Z,9.90
2018-11-06T08:38:10.170Z,10.00
2018-11-06T08:39:15.656Z,10.10
2018-11-06T08:40:21.096Z,10.10
2018-11-06T08:41:26.568Z,10.10
2018-11-06T08:42:32.146Z,10.10
2018-11-06T08:43:37.645Z,10.10
2018-11-06T08:44:43.145Z,10.00
2018-11-06T08:45:48.609Z,10.00
2018-11-06T08:46:54.237Z,10.00
2018-11-06T08:47:59.756Z,10.00
2018-11-06T08:49:05.287Z,10.00
2018-11-06T08:50:12.717Z,9.90
2018-11-06T08:51:18.197Z,10.00
2018-11-06T08:52:23.748Z,10.00
2018-11-06T08:53:29.185Z,10.00
2018-11-06T08:54:34.727Z,10.10
2018-11-06T08:55:40.220Z,10.00
2018-11-06T08:56:45.659Z,10.10
2018-11-06T08:57:51.182Z,10.10
2018-11-06T08:58:56.640Z,10.10
2018-11-06T09:00:02.073Z,10.10
2018-11-06T09:01:07.608Z,10.10
2018-11-06T09:02:13.069Z,10.20
2018-11-06T09:03:18.529Z,10.10
2018-11-06T09:04:24.157Z,10.20
2018-11-06T09:05:29.577Z,10.30
2018-11-06T09:06:35.080Z,10.20
2018-11-06T09:07:40.522Z,10.30
2018-11-06T09:08:46.031Z,10.30
2018-11-06T09:09:51.488Z,10.40
2018-11-06T09:10:57.177Z,10.40
2018-11-06T09:12:02.596Z,10.40
2018-11-06T09:13:08.126Z,10.50
2018-11-06T09:14:13.598Z,10.50
2018-11-06T09:15:19.053Z,10.40
2018-11-06T09:16:24.724Z,10.50
2018-11-06T09:17:30.132Z,10.50
2018-11-06T09:18:35.554Z,10.50
2018-11-06T09:19:41.064Z,10.60
2018-11-06T09:20:46.557Z,10.60
2018-11-06T09:21:52.227Z,10.60
2018-11-06T09:22:57.704Z,10.60
2018-11-06T09:24:03.162Z,10.70
2018-11-06T09:25:11.132Z,10.70
2018-11-06T09:26:16.644Z,10.70
2018-11-06T09:27:22.254Z,10.70
2018-11-06T09:28:27.700Z,10.80
2018-11-06T09:29:33.127Z,10.80
2018-11-06T09:30:38.538Z,10.90
2018-11-06T09:31:44.029Z,10.90
2018-11-06T09:32:49.520Z,11.00
2018-11-06T09:33:54.983Z,11.10
2018-11-06T09:35:00.544Z,11.10
2018-11-06T09:36:06.072Z,11.20
2018-11-06T09:37:11.591Z,11.30
2018-11-06T09:38:17.065Z,11.40
2018-11-06T09:39:22.494Z,11.50
2018-11-06T09:41:33.495Z,11.70
2018-11-06T09:42:39.213Z,11.70
2018-11-06T09:43:44.697Z,11.90
2018-11-06T09:44:50.168Z,11.90
2018-11-06T09:45:55.681Z,12.00
2018-11-06T09:47:01.155Z,12.00
2018-11-06T09:48:06.996Z,12.10
2018-11-06T09:49:12.409Z,12.20
2018-11-06T09:50:19.214Z,12.20
2018-11-06T09:51:24.794Z,12.30
2018-11-06T09:52:30.282Z,12.40
2018-11-06T09:53:35.717Z,12.50
2018-11-06T09:54:41.133Z,12.50
2018-11-06T09:55:46.608Z,12.50
2018-11-06T09:56:52.135Z,12.60
2018-11-06T09:57:57.800Z,12.70
2018-11-06T09:59:03.334Z,12.70
2018-11-06T10:00:14.690Z,12.60
2018-11-06T10:01:20.135Z,12.70
2018-11-06T10:02:25.608Z,12.60
2018-11-06T10:03:31.116Z,12.70
2018-11-06T10:04:36.641Z,12.80
2018-11-06T10:05:42.084Z,12.80
2018-11-06T10:06:47.635Z,12.90
2018-11-06T10:07:53.442Z,12.90
2018-11-06T10:08:58.895Z,13.00
2018-11-06T10:10:04.813Z,13.00
2018-11-06T10:11:10.357Z,13.00
2018-11-06T10:12:15.796Z,13.00
2018-11-06T10:13:21.328Z,13.00
2018-11-06T10:14:26.749Z,13.10
2018-11-06T10:15:32.200Z,13.10
2018-11-06T10:16:38.010Z,13.20
2018-11-06T10:17:44.600Z,13.10
2018-11-06T10:18:50.093Z,13.10
2018-11-06T10:19:55.654Z,13.20
2018-11-06T10:21:01.171Z,13.30
2018-11-06T10:22:06.959Z,13.30
2018-11-06T10:23:12.597Z,13.30
2018-11-06T10:24:18.062Z,13.40
2018-11-06T10:25:23.513Z,13.40
2018-11-06T10:26:29.032Z,13.40
2018-11-06T10:27:34.572Z,13.50
2018-11-06T10:28:40.042Z,13.60
2018-11-06T10:29:45.511Z,13.60
2018-11-06T10:30:50.994Z,13.70
2018-11-06T10:31:56.390Z,13.70
2018-11-06T10:33:01.823Z,13.70
2018-11-06T10:34:07.265Z,13.70
2018-11-06T10:35:13.207Z,13.80
2018-11-06T10:36:18.693Z,13.80
2018-11-06T10:37:24.222Z,13.80
2018-11-06T10:38:29.824Z,13.70
2018-11-06T10:39:35.224Z,13.80
2018-11-06T10:40:40.708Z,13.90
2018-11-06T10:41:46.156Z,13.90
2018-11-06T10:42:52.080Z,14.00
2018-11-06T10:43:57.544Z,14.00
2018-11-06T10:45:03.040Z,14.00
2018-11-06T10:46:08.560Z,14.00
2018-11-06T10:47:14.036Z,14.10
2018-11-06T10:48:19.519Z,14.20
2018-11-06T10:49:25.197Z,14.10
2018-11-06T10:50:30.656Z,14.20
2018-11-06T10:51:36.091Z,14.20
2018-11-06T10:52:41.825Z,14.30
2018-11-06T10:53:47.312Z,14.40
2018-11-06T10:54:53.381Z,14.40
2018-11-06T10:55:58.816Z,14.60
2018-11-06T10:57:04.328Z,14.60
2018-11-06T10:58:10.018Z,14.70
2018-11-06T10:59:15.456Z,14.80
2018-11-06T11:00:26.181Z,14.80
2018-11-06T11:01:36.848Z,14.80
2018-11-06T11:02:47.544Z,14.90
2018-11-06T11:03:58.243Z,15.00
2018-11-06T11:05:03.726Z,15.00
2018-11-06T11:06:09.264Z,14.90
2018-11-06T11:07:14.730Z,15.00
2018-11-06T11:08:20.131Z,15.10
2018-11-06T11:09:25.548Z,15.10
2018-11-06T11:10:31.050Z,15.10
2018-11-06T11:11:36.627Z,15.20
2018-11-06T11:12:42.582Z,15.20
2018-11-06T11:13:48.123Z,15.10
2018-11-06T11:14:53.539Z,15.00
2018-11-06T11:15:58.993Z,14.80
2018-11-06T11:17:04.456Z,14.80
2018-11-06T11:18:09.917Z,14.70
2018-11-06T11:19:15.358Z,14.70
2018-11-06T11:20:20.888Z,14.70
2018-11-06T11:21:26.476Z,14.60
2018-11-06T11:22:31.957Z,14.70
2018-11-06T11:23:37.492Z,14.70
2018-11-06T11:24:42.961Z,14.70
2018-11-06T11:25:48.542Z,14.60
2018-11-06T11:26:54.009Z,14.60
2018-11-06T11:27:59.486Z,14.70
2018-11-06T11:29:05.306Z,14.70
2018-11-06T11:30:13.134Z,14.80
2018-11-06T11:31:18.632Z,14.90
2018-11-06T11:32:24.536Z,14.90
2018-11-06T11:33:30.013Z,15.00
2018-11-06T11:34:35.403Z,15.00
2018-11-06T11:35:40.973Z,15.10
2018-11-06T11:36:46.594Z,15.10
2018-11-06T11:37:52.403Z,15.20
2018-11-06T11:38:57.866Z,15.20
2018-11-06T11:40:03.508Z,15.30
2018-11-06T11:41:09.061Z,15.40
2018-11-06T11:42:14.520Z,15.50
2018-11-06T11:43:20.377Z,15.60
2018-11-06T11:44:26.012Z,15.70
2018-11-06T11:45:31.481Z,15.80
2018-11-06T11:46:37.074Z,15.90
2018-11-06T11:47:42.565Z,15.90
2018-11-06T11:48:48.081Z,15.90
2018-11-06T11:49:53.561Z,16.00
2018-11-06T11:50:58.984Z,16.00
2018-11-06T11:52:04.532Z,16.00
2018-11-06T11:53:09.972Z,16.10
2018-11-06T11:54:15.737Z,16.10
2018-11-06T11:55:21.316Z,16.20
2018-11-06T11:56:26.721Z,16.30
2018-11-06T11:57:32.176Z,16.30
2018-11-06T11:58:37.585Z,16.40
2018-11-06T11:59:43.118Z,16.40
2018-11-06T12:00:48.559Z,16.40
2018-11-06T12:01:54.052Z,16.40
2018-11-06T12:02:59.462Z,16.50
2018-11-06T12:04:05.293Z,16.60
2018-11-06T12:05:11.670Z,16.50
2018-11-06T12:06:17.087Z,16.50
2018-11-06T12:07:22.628Z,16.50
2018-11-06T12:08:28.069Z,16.50
2018-11-06T12:09:33.617Z,16.50
2018-11-06T12:10:39.079Z,16.60
2018-11-06T12:11:44.510Z,16.50
2018-11-06T12:12:49.975Z,16.50
2018-11-06T12:13:55.563Z,16.50
2018-11-06T12:15:01.080Z,16.50
2018-11-06T12:16:06.920Z,16.40
2018-11-06T12:17:12.426Z,16.40
2018-11-06T12:18:17.911Z,16.40
2018-11-06T12:19:23.289Z,16.40
2018-11-06T12:20:28.793Z,16.40
2018-11-06T12:21:34.238Z,16.50
2018-11-06T12:22:40.265Z,16.50
2018-11-06T12:23:45.892Z,16.50
2018-11-06T12:24:51.545Z,16.50
2018-11-06T12:25:56.797Z,16.50
2018-11-06T12:27:02.304Z,16.40
2018-11-06T12:28:07.992Z,16.40
2018-11-06T12:29:13.406Z,16.40
2018-11-06T12:30:19.157Z,16.50
2018-11-06T12:31:24.668Z,16.50
2018-11-06T12:32:30.191Z,16.60
2018-11-06T12:33:35.615Z,16.60
2018-11-06T12:34:41.070Z,16.70
2018-11-06T12:35:46.629Z,16.70
2018-11-06T12:36:52.081Z,16.70
2018-11-06T12:37:57.497Z,16.80
2018-11-06T12:39:03.115Z,16.90
2018-11-06T12:40:10.264Z,16.90
2018-11-06T12:41:15.841Z,16.90
2018-11-06T12:42:21.253Z,16.90
2018-11-06T12:43:26.745Z,16.90
2018-11-06T12:44:32.548Z,16.90
2018-11-06T12:45:37.981Z,16.90
2018-11-06T12:46:43.566Z,16.90
2018-11-06T12:47:48.985Z,16.90
2018-11-06T12:48:54.421Z,16.90
2018-11-06T12:49:59.884Z,16.90
2018-11-06T12:51:05.535Z,16.90
2018-11-06T12:52:11.351Z,17.00
2018-11-06T12:53:16.941Z,17.00
2018-11-06T12:54:22.389Z,17.10
2018-11-06T12:55:27.948Z,17.20
2018-11-06T12:56:33.396Z,17.20
2018-11-06T12:57:38.872Z,17.20
2018-11-06T12:58:44.310Z,17.20
2018-11-06T12:59:49.743Z,17.20
2018-11-06T13:00:55.205Z,17.30
2018-11-06T13:02:00.676Z,17.30
2018-11-06T13:03:06.590Z,17.40
2018-11-06T13:04:12.119Z,17.40
2018-11-06T13:05:17.570Z,17.40
2018-11-06T13:06:23.142Z,17.40
2018-11-06T13:07:28.759Z,17.40
2018-11-06T13:08:34.205Z,17.40
2018-11-06T13:09:39.639Z,17.30
2018-11-06T13:10:45.150Z,17.30
2018-11-06T13:11:50.596Z,17.20
2018-11-06T13:12:56.024Z,17.30
2018-11-06T13:14:01.497Z,17.30
2018-11-06T13:15:08.396Z,17.30
2018-11-06T13:16:13.947Z,17.30
2018-11-06T13:17:19.336Z,17.30
2018-11-06T13:18:24.808Z,17.30
2018-11-06T13:19:30.300Z,17.20
2018-11-06T13:20:35.785Z,17.20
2018-11-06T13:21:41.246Z,17.20
2018-11-06T13:22:46.701Z,17.30
2018-11-06T13:23:52.167Z,17.30
2018-11-06T13:24:57.617Z,17.30
2018-11-06T13:26:03.191Z,17.20
2018-11-06T13:27:08.552Z,17.30
2018-11-06T13:28:14.021Z,17.40
2018-11-06T13:29:19.454Z,17.30
2018-11-06T13:30:24.972Z,17.40
2018-11-06T13:31:30.403Z,17.40
2018-11-06T13:32:35.832Z,17.40
2018-11-06T13:33:41.279Z,17.30
2018-11-06T13:34:46.656Z,17.30
2018-11-06T13:35:52.145Z,17.30
2018-11-06T13:36:57.598Z,17.40
2018-11-06T13:38:03.073Z,17.40
2018-11-06T13:39:11.712Z,17.40
2018-11-06T13:40:17.662Z,17.40
2018-11-06T13:41:23.173Z,17.40
2018-11-06T13:42:28.675Z,17.50
2018-11-06T13:43:34.171Z,17.50
2018-11-06T13:44:39.888Z,17.50
2018-11-06T13:45:45.365Z,17.50
2018-11-06T13:46:50.694Z,17.50
2018-11-06T13:47:56.253Z,17.50
2018-11-06T13:49:01.913Z,17.50
2018-11-06T13:50:08.284Z,17.50
2018-11-06T13:51:13.753Z,17.50
2018-11-06T13:52:19.260Z,17.50
2018-11-06T13:53:24.684Z,17.50
2018-11-06T13:54:30.134Z,17.50
2018-11-06T13:55:35.521Z,17.50
2018-11-06T13:56:41.009Z,17.40
2018-11-06T13:57:47.160Z,17.40
2018-11-06T13:58:52.599Z,17.30
2018-11-06T13:59:58.068Z,17.20
2018-11-06T14:01:03.476Z,17.20
2018-11-06T14:02:08.924Z,17.20
2018-11-06T14:03:14.529Z,17.30
2018-11-06T14:04:20.198Z,17.20
2018-11-06T14:05:25.725Z,17.20
2018-11-06T14:06:31.196Z,17.10
2018-11-06T14:07:36.696Z,17.10
2018-11-06T14:08:42.188Z,17.00
2018-11-06T14:09:47.890Z,17.00
2018-11-06T14:10:53.268Z,17.00
2018-11-06T14:11:58.723Z,17.00
2018-11-06T14:13:04.378Z,16.90
2018-11-06T14:14:09.819Z,16.80
2018-11-06T14:15:15.337Z,16.90
2018-11-06T14:16:20.851Z,16.80
2018-11-06T14:17:26.449Z,16.80
2018-11-06T14:18:31.946Z,16.80
2018-11-06T14:19:37.365Z,16.80
2018-11-06T14:20:42.786Z,16.70
2018-11-06T14:21:48.305Z,16.70
2018-11-06T14:22:53.849Z,16.70